Time;durP1;ratioP1;P1;durP2;ratioP2;P2;SDS_P1;SDS_P2;PMS_P1;PMS_P2;Temp;Humidity;BMP_temperature;BMP_pressure;BME280_temperature;BME280_humidity;BME280_pressure;Samples;Min_cycle;Max_cycle;Signal;HPM_P1;HPM_P2
2024/01/31 00:01:44;;;;;;;10.32;0.60;;;5.50;99.90;;;;;;5028967;28;20490;-67
2024/01/31 00:04:10;;;;;;;4.83;0.63;;;5.40;99.90;;;;;;5029552;28;20068;-67
2024/01/31 00:06:35;;;;;;;8.33;0.50;;;5.40;99.90;;;;;;5028074;28;20041;-67
2024/01/31 00:09:02;;;;;;;5.57;0.50;;;5.30;99.90;;;;;;5031218;28;20038;-67
2024/01/31 00:11:30;;;;;;;6.78;0.60;;;5.30;99.90;;;;;;5010908;28;20049;-67
2024/01/31 00:13:57;;;;;;;8.38;0.68;;;5.30;99.90;;;;;;5012371;28;20044;-67
2024/01/31 00:16:22;;;;;;;4.68;0.80;;;5.30;99.90;;;;;;5010746;28;20038;-67
2024/01/31 00:18:50;;;;;;;9.52;1.05;;;5.20;99.90;;;;;;5029653;28;20037;-67
2024/01/31 00:21:16;;;;;;;6.35;0.95;;;5.20;99.90;;;;;;5010517;28;20045;-67
2024/01/31 00:23:42;;;;;;;;;;;5.20;99.90;;;;;;5029123;28;20501;-67
2024/01/31 00:26:07;;;;;;;3.55;0.93;;;5.20;99.90;;;;;;5030918;28;19924;-67
2024/01/31 00:28:33;;;;;;;1.67;0.43;;;5.20;99.90;;;;;;5028442;28;20565;-67
2024/01/31 00:30:58;;;;;;;2.97;0.60;;;5.20;99.90;;;;;;5029707;28;20029;-67
2024/01/31 00:33:24;;;;;;;6.73;1.33;;;5.10;99.90;;;;;;5028485;28;20109;-67
2024/01/31 00:35:50;;;;;;;8.43;0.97;;;5.10;99.90;;;;;;4995129;28;20037;-68
2024/01/31 00:38:15;;;;;;;6.60;0.83;;;5.10;99.90;;;;;;5028779;28;20119;-68
2024/01/31 00:40:41;;;;;;;10.87;1.83;;;5.00;99.90;;;;;;5012121;28;20387;-68
2024/01/31 00:43:09;;;;;;;6.23;0.93;;;5.00;99.90;;;;;;5010857;28;20340;-67
2024/01/31 00:45:35;;;;;;;8.15;0.80;;;5.00;99.90;;;;;;5015963;28;20037;-68
2024/01/31 00:48:00;;;;;;;6.50;0.87;;;5.00;99.90;;;;;;5032155;28;20479;-68
2024/01/31 00:50:26;;;;;;;5.73;1.13;;;5.10;99.90;;;;;;5015364;28;20037;-68
2024/01/31 00:52:51;;;;;;;5.20;0.97;;;5.10;99.90;;;;;;5032222;28;20724;-67
2024/01/31 00:55:17;;;;;;;3.93;1.20;;;5.10;99.90;;;;;;5035043;28;20029;-67
2024/01/31 00:57:42;;;;;;;6.20;0.93;;;5.10;99.90;;;;;;5015115;28;20034;-67
2024/01/31 01:00:09;;;;;;;8.40;1.20;;;5.20;99.90;;;;;;5032837;28;20045;-68
2024/01/31 01:02:40;;;;;;;1.95;0.93;;;5.20;99.90;;;;;;5016266;28;20498;-68
2024/01/31 01:05:09;;;;;;;9.07;0.82;;;5.20;99.90;;;;;;5013658;28;20477;-67
2024/01/31 01:07:41;;;;;;;7.32;0.68;;;5.20;99.90;;;;;;5015136;28;20520;-67
2024/01/31 01:10:11;;;;;;;4.45;0.95;;;5.20;99.90;;;;;;5013742;28;20049;-68
2024/01/31 01:12:37;;;;;;;4.78;0.75;;;5.20;99.90;;;;;;5032852;28;20037;-68
2024/01/31 01:15:03;;;;;;;12.77;1.02;;;5.30;99.90;;;;;;5013745;28;20486;-69
2024/01/31 01:17:29;;;;;;;3.67;0.80;;;5.30;99.90;;;;;;5039242;28;20041;-68
2024/01/31 01:19:55;;;;;;;6.17;0.70;;;5.30;99.90;;;;;;5034738;28;20455;-68
2024/01/31 01:22:20;;;;;;;3.65;1.10;;;5.30;99.90;;;;;;5032233;28;20026;-68
2024/01/31 01:24:46;;;;;;;8.00;0.80;;;5.30;99.90;;;;;;5014547;28;20083;-68
2024/01/31 01:27:12;;;;;;;7.78;0.80;;;5.30;99.90;;;;;;5035535;28;20045;-68
2024/01/31 01:29:37;;;;;;;5.53;0.77;;;5.30;99.90;;;;;;5017927;28;20042;-68
2024/01/31 01:32:03;;;;;;;4.80;0.97;;;5.30;99.90;;;;;;5000438;28;20056;-68
2024/01/31 01:34:29;;;;;;;7.97;0.77;;;5.30;99.90;;;;;;5033484;28;20088;-68
2024/01/31 01:36:54;;;;;;;6.93;0.87;;;5.30;99.90;;;;;;5037245;28;20045;-68
2024/01/31 01:39:20;;;;;;;5.10;1.30;;;5.20;99.90;;;;;;5011940;28;20442;-68
2024/01/31 01:41:49;;;;;;;6.40;0.50;;;5.20;99.90;;;;;;5005041;28;20120;-68
2024/01/31 01:44:15;;;;;;;4.65;1.92;;;5.20;99.90;;;;;;5014333;28;20053;-68
2024/01/31 01:46:42;;;;;;;5.15;0.85;;;5.20;99.90;;;;;;5032218;28;20041;-67
2024/01/31 01:49:08;;;;;;;2.85;0.80;;;5.30;99.90;;;;;;5013400;28;20048;-67
2024/01/31 01:51:34;;;;;;;4.53;1.02;;;5.20;99.90;;;;;;5014920;28;20029;-67
2024/01/31 01:54:00;;;;;;;3.95;0.82;;;5.20;99.90;;;;;;5031984;28;20033;-67
2024/01/31 01:56:26;;;;;;;6.23;0.97;;;5.20;99.90;;;;;;5045816;28;20041;-68
2024/01/31 01:58:53;;;;;;;3.70;1.02;;;5.20;99.90;;;;;;4999124;28;20299;-68
2024/01/31 02:01:20;;;;;;;3.95;0.77;;;5.10;99.90;;;;;;5030995;28;20107;-68
2024/01/31 02:03:46;;;;;;;6.65;0.95;;;5.10;99.90;;;;;;5030928;28;20055;-67
2024/01/31 02:06:11;;;;;;;6.05;0.50;;;5.10;99.90;;;;;;5013531;28;20081;-68
2024/01/31 02:08:37;;;;;;;4.27;0.80;;;5.10;99.90;;;;;;5035088;28;20484;-68
2024/01/31 02:11:03;;;;;;;9.00;0.83;;;5.10;99.90;;;;;;5045873;28;20107;-68
2024/01/31 02:13:30;;;;;;;6.28;0.95;;;5.00;99.90;;;;;;5013517;28;20468;-68
2024/01/31 02:15:57;;;;;;;7.18;1.38;;;5.00;99.90;;;;;;5030726;28;20492;-67
2024/01/31 02:18:26;;;;;;;8.13;0.98;;;5.00;99.90;;;;;;5014965;28;20121;-67
2024/01/31 02:20:52;;;;;;;3.55;0.70;;;5.00;99.90;;;;;;5030365;28;20092;-67
2024/01/31 02:23:18;;;;;;;7.53;0.95;;;5.00;99.90;;;;;;5013813;28;20068;-68
2024/01/31 02:25:47;;;;;;;4.75;1.02;;;5.00;99.90;;;;;;5028807;28;20049;-67
2024/01/31 02:28:13;;;;;;;4.57;0.60;;;5.00;99.90;;;;;;5034120;28;20037;-68
2024/01/31 02:30:39;;;;;;;4.27;0.30;;;5.00;99.90;;;;;;5035074;28;20092;-68
2024/01/31 02:33:04;;;;;;;5.00;0.80;;;4.90;99.90;;;;;;5033472;28;20033;-68
2024/01/31 02:35:34;;;;;;;3.78;0.65;;;4.90;99.90;;;;;;5014152;28;20040;-67
2024/01/31 02:38:00;;;;;;;3.83;0.57;;;4.90;99.90;;;;;;5032187;28;20041;-68
2024/01/31 02:40:27;;;;;;;7.60;0.95;;;4.90;99.90;;;;;;5015663;28;20037;-68
2024/01/31 02:42:53;;;;;;;;;;;5.00;99.90;;;;;;5012384;28;20414;-68
2024/01/31 02:45:19;;;;;;;4.53;0.90;;;5.00;99.90;;;;;;5032998;28;19987;-67
2024/01/31 02:47:44;;;;;;;5.20;0.83;;;5.00;99.90;;;;;;5035668;28;20513;-67
2024/01/31 02:50:10;;;;;;;4.27;0.70;;;5.00;99.90;;;;;;5030448;28;20042;-68
2024/01/31 02:52:36;;;;;;;3.40;1.00;;;5.00;99.90;;;;;;5010231;28;20483;-68
2024/01/31 02:55:02;;;;;;;3.92;0.95;;;5.00;99.90;;;;;;5009409;28;20053;-67
2024/01/31 02:57:28;;;;;;;2.92;0.88;;;5.10;99.90;;;;;;5012985;28;20044;-68
2024/01/31 02:59:53;;;;;;;4.03;0.50;;;5.10;99.90;;;;;;5037970;28;20429;-68
2024/01/31 03:02:19;;;;;;;4.30;0.93;;;5.10;99.90;;;;;;5010010;28;20052;-67
2024/01/31 03:04:45;;;;;;;3.17;0.93;;;5.10;99.90;;;;;;5020834;28;20045;-67
2024/01/31 03:07:11;;;;;;;3.97;1.08;;;5.10;99.90;;;;;;5029458;28;20852;-68
2024/01/31 03:09:40;;;;;;;6.47;1.15;;;5.10;99.90;;;;;;5016198;28;20045;-67
2024/01/31 03:12:06;;;;;;;3.40;0.73;;;5.10;99.90;;;;;;5029115;28;20075;-68
2024/01/31 03:14:32;;;;;;;5.53;1.08;;;5.10;99.90;;;;;;5012336;28;20041;-68
2024/01/31 03:16:58;;;;;;;1.65;0.93;;;5.10;99.90;;;;;;5010322;28;20049;-67
2024/01/31 03:19:24;;;;;;;6.60;0.80;;;5.10;99.90;;;;;;5040100;28;20032;-67
2024/01/31 03:21:50;;;;;;;5.20;0.70;;;5.10;99.90;;;;;;5029238;28;20055;-67
2024/01/31 03:24:16;;;;;;;2.07;0.50;;;5.00;99.90;;;;;;5012001;28;20452;-67
2024/01/31 03:26:42;;;;;;;3.15;0.90;;;5.00;99.90;;;;;;5033100;28;20288;-67
2024/01/31 03:29:08;;;;;;;4.80;1.07;;;5.00;99.90;;;;;;5033822;28;20044;-67
2024/01/31 03:31:33;;;;;;;9.93;1.15;;;5.00;99.90;;;;;;5014930;28;20311;-68
2024/01/31 03:33:59;;;;;;;4.35;1.00;;;5.00;99.90;;;;;;4995181;28;20037;-67
2024/01/31 03:36:26;;;;;;;3.35;1.25;;;5.00;99.90;;;;;;5014567;28;20040;-67
2024/01/31 03:38:54;;;;;;;4.50;0.65;;;5.00;99.90;;;;;;5011469;28;20056;-69
2024/01/31 03:41:19;;;;;;;3.15;1.38;;;5.00;99.90;;;;;;5029225;28;20049;-67
2024/01/31 03:43:45;;;;;;;2.67;0.57;;;5.00;99.90;;;;;;5011365;28;20141;-67
2024/01/31 03:46:11;;;;;;;3.47;1.00;;;5.00;99.90;;;;;;5012288;28;20275;-67
2024/01/31 03:48:37;;;;;;;;;;;5.00;99.90;;;;;;5029375;28;20103;-67
2024/01/31 03:51:03;;;;;;;1.25;0.73;;;5.00;99.90;;;;;;5031942;28;19917;-68
2024/01/31 03:53:29;;;;;;;8.93;0.50;;;5.00;99.90;;;;;;5033829;28;20101;-68
2024/01/31 03:55:54;;;;;;;3.57;0.40;;;5.00;99.90;;;;;;5012629;28;20041;-68
2024/01/31 03:58:20;;;;;;;1.53;0.50;;;5.00;99.90;;;;;;5029452;28;20469;-67
2024/01/31 04:00:46;;;;;;;0.80;0.50;;;5.00;99.90;;;;;;5011930;28;20073;-67
2024/01/31 04:03:12;;;;;;;1.65;0.43;;;5.00;99.90;;;;;;5011240;28;20134;-67
2024/01/31 04:05:37;;;;;;;4.38;0.88;;;5.00;99.90;;;;;;5028871;28;20402;-68
2024/01/31 04:08:04;;;;;;;1.23;0.40;;;5.00;99.90;;;;;;5011959;28;20052;-68
2024/01/31 04:10:29;;;;;;;5.50;0.52;;;5.00;99.90;;;;;;5028597;28;20152;-68
2024/01/31 04:12:55;;;;;;;2.23;0.50;;;5.00;99.90;;;;;;5029151;28;20048;-68
2024/01/31 04:15:20;;;;;;;2.23;0.50;;;5.00;99.90;;;;;;5028709;28;20038;-68
2024/01/31 04:17:46;;;;;;;5.37;0.90;;;5.00;99.90;;;;;;5029991;28;20597;-68
2024/01/31 04:20:12;;;;;;;2.08;0.63;;;5.00;99.90;;;;;;5031678;28;20430;-68
2024/01/31 04:22:38;;;;;;;7.97;0.50;;;5.00;99.90;;;;;;5015148;28;20071;-67
2024/01/31 04:25:04;;;;;;;;;;;5.00;99.90;;;;;;5032495;28;20472;-67
2024/01/31 04:27:30;;;;;;;6.18;0.85;;;5.00;99.90;;;;;;5015849;28;20020;-67
2024/01/31 04:29:55;;;;;;;2.70;0.50;;;5.00;99.90;;;;;;5033019;28;20033;-67
2024/01/31 04:32:23;;;;;;;2.20;0.40;;;5.00;99.90;;;;;;5019110;28;20029;-67
2024/01/31 04:34:50;;;;;;;4.22;0.68;;;5.00;99.90;;;;;;5014291;28;20059;-67
2024/01/31 04:37:16;;;;;;;1.73;0.52;;;5.00;99.90;;;;;;5015201;28;20041;-67
2024/01/31 04:39:42;;;;;;;5.93;0.50;;;4.90;99.90;;;;;;5033111;28;20053;-67
2024/01/31 04:42:08;;;;;;;3.40;0.70;;;4.90;99.90;;;;;;5018275;28;20078;-67
2024/01/31 04:44:34;;;;;;;1.42;0.90;;;4.90;99.90;;;;;;5032675;28;20069;-67
2024/01/31 04:47:00;;;;;;;6.78;0.60;;;4.90;99.90;;;;;;5031754;28;20067;-67
2024/01/31 04:49:25;;;;;;;5.53;1.30;;;4.90;99.90;;;;;;5014655;28;20037;-67
2024/01/31 04:51:51;;;;;;;4.63;1.10;;;4.90;99.90;;;;;;5031639;28;20502;-67
2024/01/31 04:54:17;;;;;;;2.70;1.13;;;4.90;99.90;;;;;;4993542;28;20045;-67
2024/01/31 04:56:43;;;;;;;3.40;0.90;;;4.90;99.90;;;;;;5032004;28;20033;-67
2024/01/31 04:59:08;;;;;;;2.70;0.77;;;4.90;99.90;;;;;;5017069;28;20490;-67
2024/01/31 05:01:34;;;;;;;2.60;0.70;;;4.90;99.90;;;;;;5014588;28;20071;-67
2024/01/31 05:04:00;;;;;;;4.30;0.90;;;5.00;99.90;;;;;;4999064;28;20049;-68
2024/01/31 05:06:26;;;;;;;3.55;0.68;;;4.90;99.90;;;;;;5047293;28;20417;-67
2024/01/31 05:08:51;;;;;;;1.55;0.77;;;5.00;99.90;;;;;;5008936;28;20049;-67
2024/01/31 05:11:17;;;;;;;4.23;0.60;;;5.00;99.90;;;;;;5014499;28;20517;-68
2024/01/31 05:13:43;;;;;;;4.90;0.98;;;5.00;99.90;;;;;;5031976;28;20410;-67
2024/01/31 05:16:09;;;;;;;2.78;0.80;;;5.10;99.90;;;;;;5018100;28;20041;-67
2024/01/31 05:18:36;;;;;;;2.90;0.70;;;5.10;99.90;;;;;;5047347;28;20048;-67
2024/01/31 05:21:02;;;;;;;;;;;5.10;99.90;;;;;;5034507;28;20071;-68
2024/01/31 05:23:27;;;;;;;6.07;0.68;;;5.10;99.90;;;;;;5031512;28;19921;-67
2024/01/31 05:25:53;;;;;;;5.20;0.53;;;5.10;99.90;;;;;;5029633;28;20053;-67
2024/01/31 05:28:20;;;;;;;5.33;1.30;;;5.10;99.90;;;;;;5031556;28;20523;-67
2024/01/31 05:30:46;;;;;;;3.20;0.60;;;5.10;99.90;;;;;;5031077;28;20112;-68
2024/01/31 05:33:12;;;;;;;7.70;0.68;;;5.10;99.90;;;;;;5046298;28;20033;-67
2024/01/31 05:35:38;;;;;;;5.97;0.88;;;5.10;99.90;;;;;;5017371;28;20099;-67
2024/01/31 05:38:04;;;;;;;2.95;0.60;;;5.10;99.90;;;;;;5031461;28;20517;-67
2024/01/31 05:40:30;;;;;;;6.72;0.63;;;5.10;99.90;;;;;;5032332;28;20525;-67
2024/01/31 05:42:56;;;;;;;4.93;1.38;;;5.10;99.90;;;;;;5013300;28;20041;-67
2024/01/31 05:45:22;;;;;;;4.35;0.73;;;5.10;99.90;;;;;;5014855;28;20025;-67
2024/01/31 05:47:48;;;;;;;2.13;0.57;;;5.00;99.90;;;;;;5031083;28;20044;-68
2024/01/31 05:50:14;;;;;;;2.70;0.60;;;5.10;99.90;;;;;;5031546;28;20120;-67
2024/01/31 05:52:39;;;;;;;11.35;1.90;;;5.10;99.90;;;;;;5031058;28;20413;-67
2024/01/31 05:55:05;;;;;;;2.20;0.50;;;5.00;99.90;;;;;;5031667;28;20070;-67
2024/01/31 05:57:31;;;;;;;3.70;0.80;;;5.00;99.90;;;;;;5031085;28;20559;-67
2024/01/31 05:59:57;;;;;;;3.83;0.55;;;5.10;99.90;;;;;;5030966;28;20084;-67
2024/01/31 06:02:22;;;;;;;2.27;0.50;;;5.00;99.90;;;;;;5016823;28;20076;-67
2024/01/31 06:04:48;;;;;;;5.63;0.67;;;5.00;99.90;;;;;;5030151;28;20291;-68
2024/01/31 06:07:13;;;;;;;5.97;0.70;;;5.10;99.90;;;;;;5013086;28;20048;-67
2024/01/31 06:09:39;;;;;;;4.57;0.90;;;5.10;99.90;;;;;;5030928;28;20041;-67
2024/01/31 06:12:08;;;;;;;2.97;0.75;;;5.10;99.90;;;;;;5043984;28;20122;-67
2024/01/31 06:14:37;;;;;;;5.28;1.30;;;5.00;99.90;;;;;;5010803;28;20045;-67
2024/01/31 06:17:05;;;;;;;4.40;0.80;;;5.10;99.90;;;;;;5005700;28;20045;-68
2024/01/31 06:19:32;;;;;;;2.22;0.60;;;5.10;99.90;;;;;;5030377;28;20076;-68
2024/01/31 06:21:58;;;;;;;6.97;1.33;;;5.10;99.90;;;;;;5032410;28;20463;-67
2024/01/31 06:24:24;;;;;;;5.87;0.67;;;5.10;99.90;;;;;;5030589;28;20037;-67
2024/01/31 06:26:50;;;;;;;3.22;0.70;;;5.10;99.90;;;;;;5012345;28;20456;-68
2024/01/31 06:29:18;;;;;;;7.53;0.95;;;5.10;99.90;;;;;;5035270;28;20037;-68
2024/01/31 06:31:48;;;;;;;10.27;1.38;;;5.10;99.90;;;;;;5036905;28;20502;-68
2024/01/31 06:34:14;;;;;;;6.05;0.90;;;5.10;99.90;;;;;;5029669;28;20116;-68
2024/01/31 06:36:40;;;;;;;5.22;1.02;;;5.10;99.90;;;;;;5005799;28;20041;-68
2024/01/31 06:39:06;;;;;;;6.38;0.70;;;5.10;99.90;;;;;;5030292;28;20133;-67
2024/01/31 06:41:33;;;;;;;3.17;0.80;;;5.10;99.90;;;;;;5013638;28;20120;-68
2024/01/31 06:43:59;;;;;;;6.47;1.25;;;5.00;99.90;;;;;;5029793;28;20435;-68
2024/01/31 06:46:24;;;;;;;3.17;1.13;;;5.00;99.90;;;;;;5015316;28;20069;-68
2024/01/31 06:48:50;;;;;;;3.57;0.77;;;5.10;99.90;;;;;;5010643;28;20072;-69
2024/01/31 06:51:16;;;;;;;5.17;1.30;;;5.00;99.90;;;;;;5031338;28;20034;-68
2024/01/31 06:53:41;;;;;;;2.87;1.50;;;5.00;99.90;;;;;;5013757;28;20057;-69
2024/01/31 06:56:15;;;;;;;3.63;1.07;;;5.00;99.90;;;;;;5027163;28;20627;-69
2024/01/31 06:58:40;;;;;;;8.85;1.42;;;5.00;99.90;;;;;;5011783;28;20049;-69
2024/01/31 07:01:06;;;;;;;4.53;1.13;;;5.10;99.90;;;;;;5011840;28;20052;-69
2024/01/31 07:03:32;;;;;;;3.43;1.10;;;5.10;99.90;;;;;;5029480;28;20064;-69
2024/01/31 07:05:57;;;;;;;6.17;1.00;;;5.10;99.90;;;;;;5029300;28;20117;-69
2024/01/31 07:08:23;;;;;;;9.10;1.10;;;5.10;99.90;;;;;;5029401;28;20422;-69
2024/01/31 07:10:48;;;;;;;6.97;1.20;;;5.10;99.90;;;;;;5028818;28;20037;-69
2024/01/31 07:13:14;;;;;;;3.87;0.73;;;5.10;99.90;;;;;;5016833;28;20090;-68
2024/01/31 07:15:40;;;;;;;8.87;1.40;;;5.10;99.90;;;;;;5028784;28;21726;-69
2024/01/31 07:18:05;;;;;;;6.60;2.03;;;5.10;99.90;;;;;;5029238;28;20755;-68
2024/01/31 07:20:31;;;;;;;7.50;1.38;;;5.10;99.90;;;;;;4994429;28;20449;-68
2024/01/31 07:22:57;;;;;;;3.10;1.20;;;5.10;99.90;;;;;;5027257;28;20048;-68
2024/01/31 07:25:22;;;;;;;9.57;2.70;;;5.10;99.90;;;;;;5043366;28;20037;-68
2024/01/31 07:27:48;;;;;;;5.17;1.37;;;5.10;99.90;;;;;;5028027;28;20490;-68
2024/01/31 07:30:14;;;;;;;2.93;1.40;;;5.10;99.90;;;;;;5024923;28;20191;-68
2024/01/31 07:32:40;;;;;;;6.28;1.70;;;5.10;99.90;;;;;;5010669;28;20787;-68
2024/01/31 07:35:09;;;;;;;2.95;1.48;;;5.10;99.90;;;;;;5009431;28;20044;-68
2024/01/31 07:37:38;;;;;;;5.50;1.92;;;5.10;99.90;;;;;;5010688;28;20076;-68
2024/01/31 07:40:09;;;;;;;7.53;2.25;;;5.10;99.90;;;;;;5026925;28;20328;-68
2024/01/31 07:42:36;;;;;;;4.13;1.67;;;5.10;99.90;;;;;;5009423;28;20053;-68
2024/01/31 07:45:02;;;;;;;9.75;2.30;;;5.10;99.90;;;;;;5012295;28;20053;-69
2024/01/31 07:47:28;;;;;;;3.10;2.08;;;5.10;99.90;;;;;;5028669;28;20045;-69
2024/01/31 07:49:54;;;;;;;10.37;3.50;;;5.10;99.90;;;;;;5030664;28;20537;-65
2024/01/31 07:52:19;;;;;;;8.53;3.67;;;5.10;99.90;;;;;;5006476;28;20120;-66
2024/01/31 07:54:45;;;;;;;7.30;2.77;;;5.10;99.90;;;;;;5023588;28;20037;-66
2024/01/31 07:57:10;;;;;;;3.53;2.37;;;5.10;99.90;;;;;;5026962;28;20544;-65
2024/01/31 07:59:36;;;;;;;9.50;3.93;;;5.20;99.90;;;;;;5012959;28;20037;-66
2024/01/31 08:02:02;;;;;;;4.88;3.58;;;5.20;99.90;;;;;;5027159;28;20421;-66
2024/01/31 08:04:27;;;;;;;10.93;4.33;;;5.20;99.90;;;;;;5036482;28;20041;-66
2024/01/31 08:06:54;;;;;;;9.67;4.00;;;5.20;99.90;;;;;;5010454;28;20123;-66
2024/01/31 08:09:22;;;;;;;9.13;4.38;;;5.20;99.90;;;;;;5024848;28;20311;-67
2024/01/31 08:11:48;;;;;;;16.60;6.03;;;5.20;99.90;;;;;;5029333;28;20403;-66
2024/01/31 08:14:14;;;;;;;12.52;4.43;;;5.20;99.90;;;;;;5028789;28;20100;-64
2024/01/31 08:16:39;;;;;;;11.13;4.37;;;5.20;99.90;;;;;;5010221;28;20037;-66
2024/01/31 08:19:05;;;;;;;7.63;3.60;;;5.20;99.90;;;;;;5011867;28;20041;-66
2024/01/31 08:21:32;;;;;;;7.18;4.10;;;5.20;99.90;;;;;;5011182;28;20070;-66
2024/01/31 08:23:58;;;;;;;8.68;4.40;;;5.30;99.90;;;;;;5010299;28;20046;-66
2024/01/31 08:26:24;;;;;;;;;;;5.30;99.90;;;;;;5028568;28;20076;-65
2024/01/31 08:28:49;;;;;;;7.22;3.28;;;5.30;99.90;;;;;;5026919;28;19972;-65
2024/01/31 08:31:15;;;;;;;10.27;3.90;;;5.30;99.90;;;;;;5011262;28;20037;-65
2024/01/31 08:33:41;;;;;;;11.03;3.27;;;5.30;99.90;;;;;;5028553;28;20049;-67
2024/01/31 08:36:08;;;;;;;11.27;3.40;;;5.30;99.90;;;;;;5027418;28;20045;-69
2024/01/31 08:38:34;;;;;;;7.30;3.15;;;5.40;99.90;;;;;;5003292;28;20525;-68
2024/01/31 08:41:00;;;;;;;;;;;5.40;99.90;;;;;;5020135;28;20076;-67
2024/01/31 08:43:25;;;;;;;10.50;4.18;;;5.40;99.90;;;;;;5002582;28;19917;-66
2024/01/31 08:45:52;;;;;;;9.23;3.67;;;5.40;99.90;;;;;;5022978;28;20041;-67
2024/01/31 08:48:18;;;;;;;;;;;5.40;99.90;;;;;;5023186;28;20041;-67
2024/01/31 08:50:43;;;;;;;9.45;4.10;;;5.40;99.90;;;;;;5022265;28;19924;-67
2024/01/31 08:53:09;;;;;;;6.27;3.50;;;5.40;99.90;;;;;;5022071;28;20073;-67
2024/01/31 08:55:35;;;;;;;8.98;4.18;;;5.40;99.90;;;;;;5021039;28;20420;-67
2024/01/31 08:58:00;;;;;;;6.60;3.93;;;5.40;99.90;;;;;;5010095;28;20046;-67
2024/01/31 09:00:29;;;;;;;10.07;3.33;;;5.40;99.90;;;;;;5023507;28;20394;-67
2024/01/31 09:02:55;;;;;;;11.48;4.07;;;5.40;99.90;;;;;;5001637;28;20033;-67
2024/01/31 09:05:21;;;;;;;6.45;3.25;;;5.40;99.90;;;;;;5022692;28;20044;-67
2024/01/31 09:07:47;;;;;;;12.23;3.90;;;5.40;99.90;;;;;;5025475;28;20037;-68
2024/01/31 09:10:12;;;;;;;6.47;3.37;;;5.50;99.90;;;;;;5023776;28;20083;-68
2024/01/31 09:12:38;;;;;;;7.22;3.60;;;5.50;99.90;;;;;;5023000;28;20037;-67
2024/01/31 09:15:04;;;;;;;5.87;3.20;;;5.50;99.90;;;;;;5008776;28;20124;-66
2024/01/31 09:17:29;;;;;;;5.60;3.00;;;5.40;99.90;;;;;;5025484;28;20033;-67
2024/01/31 09:19:55;;;;;;;8.07;2.87;;;5.50;99.90;;;;;;5024502;28;20044;-68
2024/01/31 09:22:20;;;;;;;6.57;3.27;;;5.50;99.90;;;;;;5006188;28;20502;-67
2024/01/31 09:24:46;;;;;;;8.00;3.37;;;5.50;99.90;;;;;;5022888;28;20311;-67
2024/01/31 09:27:12;;;;;;;16.83;4.50;;;5.50;99.90;;;;;;5004745;28;20041;-67
2024/01/31 09:29:37;;;;;;;8.40;3.03;;;5.50;99.90;;;;;;5022548;28;20422;-67
2024/01/31 09:32:03;;;;;;;9.10;3.43;;;5.50;99.90;;;;;;5009331;28;20041;-68
2024/01/31 09:34:29;;;;;;;7.53;3.40;;;5.60;99.90;;;;;;5009463;28;20629;-66
2024/01/31 09:36:55;;;;;;;7.10;4.15;;;5.60;99.90;;;;;;5023187;28;20041;-67
2024/01/31 09:39:21;;;;;;;4.88;3.22;;;5.60;99.90;;;;;;5026011;28;20457;-66
2024/01/31 09:41:48;;;;;;;9.10;3.55;;;5.60;99.90;;;;;;5008603;28;20060;-66
2024/01/31 09:44:15;;;;;;;5.80;3.17;;;5.70;99.90;;;;;;5006211;28;20109;-67
2024/01/31 09:46:42;;;;;;;7.93;3.42;;;5.70;99.90;;;;;;5006121;28;20113;-67
2024/01/31 09:49:07;;;;;;;3.33;3.03;;;5.70;99.90;;;;;;5011773;28;20387;-67
2024/01/31 09:51:33;;;;;;;8.90;2.93;;;5.70;99.90;;;;;;5027960;28;20120;-67
2024/01/31 09:54:00;;;;;;;6.50;3.75;;;5.70;99.90;;;;;;5023953;28;20143;-67
2024/01/31 09:56:31;;;;;;;6.75;2.35;;;5.80;99.90;;;;;;5006979;28;20657;-67
2024/01/31 09:58:57;;;;;;;5.20;3.45;;;5.80;99.90;;;;;;5038438;28;20128;-67
2024/01/31 10:01:25;;;;;;;4.82;3.30;;;5.80;99.90;;;;;;5024836;28;20497;-67
2024/01/31 10:03:52;;;;;;;7.50;2.97;;;5.80;99.90;;;;;;5024220;28;20422;-67
2024/01/31 10:06:19;;;;;;;4.82;3.53;;;5.80;99.90;;;;;;5008383;28;20452;-66
2024/01/31 10:08:46;;;;;;;5.05;3.50;;;5.90;99.90;;;;;;4990784;28;20096;-67
2024/01/31 10:11:12;;;;;;;6.05;3.85;;;5.90;99.90;;;;;;5024088;28;20034;-67
2024/01/31 10:13:38;;;;;;;6.22;3.30;;;5.90;99.90;;;;;;5023973;28;20052;-67
2024/01/31 10:16:05;;;;;;;6.82;3.90;;;5.90;99.90;;;;;;5013201;28;20045;-67
2024/01/31 10:18:30;;;;;;;10.05;4.32;;;6.10;99.90;;;;;;5024751;28;20079;-67
2024/01/31 10:20:57;;;;;;;5.23;4.00;;;6.00;99.90;;;;;;4990302;28;20087;-67
2024/01/31 10:23:23;;;;;;;7.70;4.13;;;6.10;99.90;;;;;;5026303;28;20041;-67
2024/01/31 10:25:49;;;;;;;;;;;6.10;99.90;;;;;;5023120;28;20041;-67
2024/01/31 10:28:18;;;;;;;10.30;4.97;;;6.10;99.90;;;;;;5005840;28;19924;-66
2024/01/31 10:30:45;;;;;;;6.93;4.35;;;6.10;99.90;;;;;;5006525;28;20045;-66
2024/01/31 10:33:12;;;;;;;8.57;4.82;;;6.10;99.90;;;;;;4995451;28;20054;-67
2024/01/31 10:35:42;;;;;;;7.93;5.03;;;6.20;99.90;;;;;;5006402;28;20060;-66
2024/01/31 10:38:10;;;;;;;6.82;4.75;;;6.10;99.90;;;;;;5013673;28;20056;-67
2024/01/31 10:40:39;;;;;;;8.10;4.25;;;6.20;99.90;;;;;;4989703;28;20037;-67
2024/01/31 10:43:07;;;;;;;8.68;5.15;;;6.20;99.90;;;;;;5038497;28;20087;-67
2024/01/31 10:45:34;;;;;;;5.72;5.13;;;6.20;99.90;;;;;;5019880;28;20147;-67
2024/01/31 10:48:02;;;;;;;10.18;5.00;;;6.10;99.90;;;;;;5024445;28;20037;-67
2024/01/31 10:50:29;;;;;;;6.28;4.93;;;6.20;99.90;;;;;;5005475;28;20514;-67
2024/01/31 10:52:56;;;;;;;5.93;5.05;;;6.10;99.90;;;;;;5007183;28;20041;-66
2024/01/31 10:55:23;;;;;;;12.75;6.70;;;6.20;99.90;;;;;;5028933;28;20040;-66
2024/01/31 10:57:48;;;;;;;;;;;6.20;99.90;;;;;;5007427;28;20094;-66
2024/01/31 11:00:32;;;;;;;7.85;6.50;;;6.20;99.90;;;;;;5005789;28;19925;-67
2024/01/31 11:03:00;;;;;;;10.55;6.60;;;6.20;99.90;;;;;;5022054;28;20068;-67
2024/01/31 11:05:29;;;;;;;12.10;6.75;;;6.20;99.90;;;;;;4988229;28;20064;-67
2024/01/31 11:07:55;;;;;;;10.48;6.43;;;6.20;99.90;;;;;;5004038;28;20071;-67
2024/01/31 11:10:22;;;;;;;7.60;6.90;;;6.30;99.90;;;;;;5023535;28;20041;-67
2024/01/31 11:12:59;;;;;;;9.30;7.13;;;6.20;99.90;;;;;;5022596;28;20547;-67
2024/01/31 11:15:29;;;;;;;8.55;6.70;;;6.30;99.90;;;;;;4987183;28;20120;-66
2024/01/31 11:18:11;;;;;;;7.78;6.63;;;6.30;99.90;;;;;;5004533;28;20510;-66
2024/01/31 11:20:52;;;;;;;7.70;6.40;;;6.30;99.90;;;;;;4988102;28;20033;-67
2024/01/31 11:23:20;;;;;;;7.57;6.63;;;6.30;99.90;;;;;;5039150;28;20703;-68
2024/01/31 11:25:46;;;;;;;10.40;6.43;;;6.30;99.90;;;;;;5004358;28;20041;-67
2024/01/31 11:28:13;;;;;;;11.70;6.28;;;6.40;99.90;;;;;;5003160;28;20108;-67
2024/01/31 11:30:39;;;;;;;10.80;7.18;;;6.30;99.90;;;;;;5006220;28;20131;-67
2024/01/31 11:33:05;;;;;;;11.15;5.78;;;6.30;99.90;;;;;;4992592;28;20045;-67
2024/01/31 11:35:32;;;;;;;9.20;6.30;;;6.40;99.90;;;;;;5021995;28;20037;-66
2024/01/31 11:37:58;;;;;;;;;;;6.40;99.90;;;;;;5022786;28;20099;-66
2024/01/31 11:40:24;;;;;;;7.72;6.15;;;6.40;99.90;;;;;;5021892;28;20476;-67
2024/01/31 11:42:54;;;;;;;10.75;6.88;;;6.40;99.90;;;;;;5021647;28;20052;-66
2024/01/31 11:45:25;;;;;;;12.13;6.97;;;6.50;99.90;;;;;;5004409;28;20707;-67
2024/01/31 11:47:53;;;;;;;14.32;6.78;;;6.50;99.90;;;;;;4986493;28;20132;-67
2024/01/31 11:50:19;;;;;;;8.25;6.97;;;6.60;99.90;;;;;;5022412;28;20041;-67
2024/01/31 11:52:46;;;;;;;9.35;6.32;;;6.70;99.90;;;;;;4988022;28;20520;-67
2024/01/31 11:55:11;;;;;;;;;;;6.70;99.90;;;;;;5021546;28;20040;-67
2024/01/31 11:57:38;;;;;;;11.57;5.63;;;6.70;99.90;;;;;;5003832;28;19924;-67
2024/01/31 12:00:04;;;;;;;6.38;5.65;;;6.70;99.90;;;;;;4988316;28;20064;-67
2024/01/31 12:02:31;;;;;;;;;;;6.70;99.90;;;;;;4999344;28;20038;-67
2024/01/31 12:04:57;;;;;;;8.63;7.20;;;6.80;99.90;;;;;;5020292;28;19968;-66
2024/01/31 12:07:23;;;;;;;7.78;5.45;;;6.80;99.90;;;;;;5003779;28;20088;-67
2024/01/31 12:09:49;;;;;;;6.68;5.97;;;6.90;99.90;;;;;;4989051;28;20057;-67
2024/01/31 12:12:15;;;;;;;10.57;6.60;;;6.90;99.90;;;;;;4989053;28;20084;-67
2024/01/31 12:14:41;;;;;;;6.53;5.93;;;6.90;99.90;;;;;;4987752;28;20045;-67
2024/01/31 12:17:23;;;;;;;8.73;5.95;;;7.00;99.90;;;;;;5009450;28;20457;-67
2024/01/31 12:19:49;;;;;;;9.10;6.13;;;7.00;99.90;;;;;;4989384;28;20136;-64
2024/01/31 12:22:15;;;;;;;;;;;7.00;99.90;;;;;;5004905;28;20624;-64
2024/01/31 12:24:41;;;;;;;6.40;5.82;;;7.10;99.90;;;;;;5002767;28;19933;-64
2024/01/31 12:27:06;;;;;;;8.13;6.80;;;7.10;99.90;;;;;;5021651;28;20045;-64
2024/01/31 12:29:32;;;;;;;5.80;5.20;;;7.10;99.90;;;;;;5007287;28;20310;-64
2024/01/31 12:31:58;;;;;;;8.20;6.43;;;7.10;99.90;;;;;;5002408;28;20065;-64
2024/01/31 12:34:23;;;;;;;8.13;6.53;;;7.10;99.90;;;;;;5024150;28;20035;-64
2024/01/31 12:36:49;;;;;;;9.90;6.40;;;7.20;99.90;;;;;;5020233;28;20132;-64
2024/01/31 12:39:19;;;;;;;10.20;7.00;;;7.20;99.90;;;;;;5003587;28;20034;-64
2024/01/31 12:41:45;;;;;;;8.48;6.57;;;7.20;99.90;;;;;;5007637;28;20402;-64
2024/01/31 12:44:11;;;;;;;7.75;6.95;;;7.20;99.90;;;;;;5039169;28;20061;-64
2024/01/31 12:46:39;;;;;;;11.80;7.78;;;7.10;99.90;;;;;;5024053;28;20044;-64
2024/01/31 12:49:05;;;;;;;9.27;6.75;;;7.20;99.90;;;;;;5022386;28;20038;-64
2024/01/31 12:51:31;;;;;;;7.73;6.93;;;7.20;99.90;;;;;;5038250;28;20198;-65
2024/01/31 12:53:56;;;;;;;9.47;7.60;;;7.20;99.90;;;;;;5039073;28;20343;-64
2024/01/31 12:56:22;;;;;;;12.83;7.83;;;7.20;99.90;;;;;;5038017;28;20040;-64